Time;durP1;ratioP1;P1;durP2;ratioP2;P2;SDS_P1;SDS_P2;PMS_P1;PMS_P2;Temp;Humidity;BMP_temperature;BMP_pressure;BME280_temperature;BME280_humidity;BME280_pressure;Samples;Min_cycle;Max_cycle;Signal;HPM_P1;HPM_P2
2023/09/03 00:01:49;;;;;;;1.30;0.50;;;12.70;99.90;;;;;;4983658;28;20120;-74
2023/09/03 00:04:16;;;;;;;0.38;0.38;;;12.60;99.90;;;;;;4989143;28;20133;-74
2023/09/03 00:06:41;;;;;;;0.38;0.38;;;12.60;99.90;;;;;;4988177;28;20133;-74
2023/09/03 00:09:07;;;;;;;0.38;0.38;;;12.60;99.90;;;;;;4996345;28;20076;-74
2023/09/03 00:11:33;;;;;;;0.25;0.25;;;12.50;99.90;;;;;;4985011;28;20084;-74
2023/09/03 00:13:59;;;;;;;0.50;0.50;;;12.50;99.90;;;;;;4980690;28;20447;-74
2023/09/03 00:16:26;;;;;;;0.50;0.50;;;12.40;99.90;;;;;;5005191;28;20059;-74
2023/09/03 00:18:52;;;;;;;0.30;0.30;;;12.40;99.90;;;;;;4999003;28;20061;-74
2023/09/03 00:21:19;;;;;;;0.50;0.50;;;12.30;99.90;;;;;;5002977;28;20682;-74
2023/09/03 00:23:45;;;;;;;0.30;0.30;;;12.30;99.90;;;;;;4982309;28;20038;-74
2023/09/03 00:26:21;;;;;;;0.40;0.40;;;12.30;99.90;;;;;;4982053;28;20060;-74
2023/09/03 00:28:47;;;;;;;0.30;0.30;;;12.20;99.90;;;;;;4966661;28;20042;-74
2023/09/03 00:31:13;;;;;;;0.50;0.50;;;12.20;99.90;;;;;;4977844;28;20451;-74
2023/09/03 00:33:39;;;;;;;0.30;0.30;;;12.20;99.90;;;;;;4979921;28;20116;-74
2023/09/03 00:36:06;;;;;;;0.20;0.20;;;12.10;99.90;;;;;;5006595;28;20423;-74
2023/09/03 00:38:32;;;;;;;0.35;0.35;;;12.10;99.90;;;;;;4988457;28;20054;-74
2023/09/03 00:40:58;;;;;;;0.22;0.22;;;12.10;99.90;;;;;;4983240;28;20499;-74
2023/09/03 00:43:24;;;;;;;0.30;0.30;;;12.00;99.90;;;;;;4979127;28;20042;-74
2023/09/03 00:45:51;;;;;;;0.40;0.40;;;12.00;99.90;;;;;;4975092;28;20046;-74
2023/09/03 00:48:23;;;;;;;0.30;0.30;;;12.00;99.90;;;;;;4987970;28;20055;-74
2023/09/03 00:50:51;;;;;;;0.30;0.30;;;11.90;99.90;;;;;;4969892;28;20396;-74
2023/09/03 00:53:18;;;;;;;0.30;0.30;;;11.90;99.90;;;;;;4997722;28;20048;-74
2023/09/03 00:55:44;;;;;;;0.40;0.40;;;11.90;99.90;;;;;;4991544;28;20064;-74
2023/09/03 00:58:11;;;;;;;0.40;0.40;;;11.90;99.90;;;;;;4980820;28;20054;-74
2023/09/03 01:00:37;;;;;;;0.47;0.47;;;11.80;99.90;;;;;;4984681;28;20058;-74
2023/09/03 01:03:04;;;;;;;0.40;0.40;;;11.80;99.90;;;;;;4969892;28;20058;-74
2023/09/03 01:05:31;;;;;;;0.30;0.30;;;11.80;99.90;;;;;;4969765;28;20812;-74
2023/09/03 01:07:58;;;;;;;0.30;0.30;;;11.80;99.90;;;;;;4970436;28;21149;-74
2023/09/03 01:10:56;;;;;;;0.40;0.40;;;11.80;99.90;;;;;;4972831;28;20522;-74
2023/09/03 01:13:40;;;;;;;0.30;0.30;;;11.80;99.90;;;;;;4976311;28;20050;-74
2023/09/03 01:16:14;;;;;;;0.43;0.43;;;11.80;99.90;;;;;;4987650;28;20051;-74
2023/09/03 01:18:41;;;;;;;0.43;0.43;;;11.70;99.90;;;;;;4968830;28;20054;-74
2023/09/03 01:21:40;;;;;;;0.30;0.30;;;11.70;99.90;;;;;;4978634;28;20038;-74
2023/09/03 01:24:24;;;;;;;0.20;0.20;;;11.70;99.90;;;;;;4966456;28;20069;-74
2023/09/03 01:27:13;;;;;;;0.20;0.20;;;11.70;99.90;;;;;;4971079;28;20046;-74
2023/09/03 01:29:41;;;;;;;0.65;0.65;;;11.60;99.90;;;;;;4977014;28;20058;-74
2023/09/03 01:32:09;;;;;;;0.45;0.45;;;11.60;99.90;;;;;;4970780;28;20055;-74
2023/09/03 01:34:36;;;;;;;0.40;0.40;;;11.60;99.90;;;;;;4986158;28;20054;-74
2023/09/03 01:37:02;;;;;;;0.30;0.30;;;11.60;99.90;;;;;;4974372;28;20058;-74
2023/09/03 01:39:28;;;;;;;0.30;0.30;;;11.60;99.90;;;;;;4968728;28;20046;-74
2023/09/03 01:41:53;;;;;;;0.40;0.40;;;11.60;99.90;;;;;;4969451;28;20043;-74
2023/09/03 01:44:19;;;;;;;0.40;0.40;;;11.60;99.90;;;;;;4972955;28;21032;-74
2023/09/03 01:46:53;;;;;;;0.50;0.50;;;11.60;99.90;;;;;;4969357;28;20753;-74
2023/09/03 01:49:46;;;;;;;0.45;0.45;;;11.60;99.90;;;;;;4964006;28;20047;-74
2023/09/03 01:52:27;;;;;;;0.45;0.45;;;11.60;99.90;;;;;;4967615;28;20476;-74
2023/09/03 01:54:59;;;;;;;0.40;0.40;;;11.60;99.90;;;;;;4963614;28;20106;-74
2023/09/03 01:57:39;;;;;;;0.30;0.30;;;11.50;99.90;;;;;;4984094;28;20100;-74
2023/09/03 02:00:15;;;;;;;0.40;0.40;;;11.60;99.90;;;;;;4971199;28;20054;-74
2023/09/03 02:02:43;;;;;;;0.30;0.30;;;11.50;99.90;;;;;;4983154;28;20043;-74
2023/09/03 02:05:11;;;;;;;0.32;0.32;;;11.50;99.90;;;;;;4961269;28;20051;-74
2023/09/03 02:07:36;;;;;;;0.50;0.50;;;11.50;99.90;;;;;;4967052;28;20242;-74
2023/09/03 02:10:02;;;;;;;0.38;0.38;;;11.60;99.90;;;;;;4966306;28;21566;-74
2023/09/03 02:12:28;;;;;;;0.40;0.40;;;11.50;99.90;;;;;;4967126;28;20047;-73
2023/09/03 02:14:53;;;;;;;0.30;0.30;;;11.60;99.90;;;;;;4965118;28;20050;-73
2023/09/03 02:17:20;;;;;;;0.85;0.47;;;11.60;99.90;;;;;;4980432;28;20042;-73
2023/09/03 02:19:49;;;;;;;0.32;0.32;;;11.60;99.90;;;;;;4968038;28;20050;-73
2023/09/03 02:22:16;;;;;;;0.40;0.40;;;11.60;99.90;;;;;;4964174;28;20419;-73
2023/09/03 02:24:42;;;;;;;0.47;0.47;;;11.60;99.90;;;;;;4959913;28;20808;-74
2023/09/03 02:27:08;;;;;;;0.88;0.52;;;11.60;99.90;;;;;;4971937;28;20093;-73
2023/09/03 02:29:35;;;;;;;0.55;0.55;;;11.60;99.90;;;;;;4968918;28;20050;-73
2023/09/03 02:32:00;;;;;;;0.40;0.40;;;11.60;99.90;;;;;;4967271;28;20085;-73
2023/09/03 02:34:26;;;;;;;0.40;0.40;;;11.60;99.90;;;;;;4955357;28;20733;-73
2023/09/03 02:36:51;;;;;;;0.22;0.22;;;11.60;99.90;;;;;;4968434;28;20051;-73
2023/09/03 02:39:17;;;;;;;0.50;0.50;;;11.60;99.90;;;;;;4968693;28;20082;-73
2023/09/03 02:41:43;;;;;;;0.60;0.60;;;11.60;99.90;;;;;;4966320;28;20043;-73
2023/09/03 02:44:09;;;;;;;0.68;0.55;;;11.50;99.90;;;;;;4973283;28;20051;-73
2023/09/03 02:46:35;;;;;;;0.73;0.73;;;11.60;99.90;;;;;;4977905;28;20054;-73
2023/09/03 02:49:01;;;;;;;0.63;0.57;;;11.50;99.90;;;;;;4965610;28;20042;-73
2023/09/03 02:51:27;;;;;;;0.30;0.30;;;11.50;99.90;;;;;;4966825;28;20050;-73
2023/09/03 02:53:54;;;;;;;0.30;0.30;;;11.50;99.90;;;;;;4977034;28;20065;-73
2023/09/03 02:56:22;;;;;;;0.30;0.30;;;11.40;99.90;;;;;;4985592;28;20057;-73
2023/09/03 02:58:49;;;;;;;0.40;0.40;;;11.40;99.90;;;;;;4960363;28;20051;-73
2023/09/03 03:01:16;;;;;;;0.30;0.30;;;11.40;99.90;;;;;;4975259;28;20053;-74
2023/09/03 03:03:42;;;;;;;0.35;0.35;;;11.40;99.90;;;;;;4999309;28;20066;-73
2023/09/03 03:06:09;;;;;;;0.30;0.30;;;11.30;99.90;;;;;;4998784;28;20407;-73
2023/09/03 03:08:34;;;;;;;0.30;0.30;;;11.30;99.90;;;;;;4990974;28;20488;-73
2023/09/03 03:11:17;;;;;;;0.50;0.50;;;11.30;99.90;;;;;;4991063;28;20161;-74
2023/09/03 03:13:44;;;;;;;0.40;0.40;;;11.30;99.90;;;;;;4999101;28;20101;-73
2023/09/03 03:16:14;;;;;;;0.50;0.50;;;11.20;99.90;;;;;;5008818;28;20112;-73
2023/09/03 03:18:42;;;;;;;0.30;0.30;;;11.20;99.90;;;;;;5000866;28;20054;-73
2023/09/03 03:21:08;;;;;;;0.50;0.50;;;11.20;99.90;;;;;;5000207;28;20132;-74
2023/09/03 03:23:37;;;;;;;0.30;0.30;;;11.20;99.90;;;;;;5002566;28;20041;-74
2023/09/03 03:26:04;;;;;;;0.40;0.40;;;11.10;99.90;;;;;;5000669;28;20046;-74
2023/09/03 03:28:32;;;;;;;0.22;0.22;;;11.10;99.90;;;;;;5000841;28;20677;-74
2023/09/03 03:31:07;;;;;;;0.40;0.40;;;11.10;99.90;;;;;;4985178;28;20073;-74
2023/09/03 03:33:33;;;;;;;0.30;0.30;;;11.10;99.90;;;;;;4994224;28;20089;-74
2023/09/03 03:35:59;;;;;;;0.30;0.30;;;11.00;99.90;;;;;;4994087;28;20575;-74
2023/09/03 03:38:25;;;;;;;0.45;0.45;;;11.00;99.90;;;;;;4998488;28;20049;-74
2023/09/03 03:40:50;;;;;;;0.40;0.40;;;11.00;99.90;;;;;;4990233;28;20048;-74
2023/09/03 03:43:16;;;;;;;0.50;0.50;;;11.00;99.90;;;;;;4986469;28;20042;-74
2023/09/03 03:45:42;;;;;;;0.30;0.30;;;10.90;99.90;;;;;;5009844;28;20050;-73
2023/09/03 03:48:07;;;;;;;0.30;0.30;;;10.90;99.90;;;;;;4979452;28;20046;-74
2023/09/03 03:50:33;;;;;;;0.43;0.43;;;10.90;99.90;;;;;;5003930;28;20046;-74
2023/09/03 03:52:59;;;;;;;0.40;0.40;;;10.80;99.90;;;;;;4980957;28;20046;-73
2023/09/03 03:55:24;;;;;;;0.30;0.30;;;10.80;99.90;;;;;;5006794;28;20092;-73
2023/09/03 03:57:50;;;;;;;0.30;0.30;;;10.80;99.90;;;;;;4988223;28;20499;-74
2023/09/03 04:00:16;;;;;;;0.40;0.40;;;10.70;99.90;;;;;;4985521;28;20050;-74
2023/09/03 04:02:41;;;;;;;0.75;0.75;;;10.70;99.90;;;;;;5001462;28;20430;-73
2023/09/03 04:05:07;;;;;;;0.40;0.40;;;10.70;99.90;;;;;;4985558;28;20414;-73
2023/09/03 04:07:33;;;;;;;0.30;0.30;;;10.70;99.90;;;;;;4983286;28;20914;-73
2023/09/03 04:09:59;;;;;;;0.60;0.60;;;10.70;99.90;;;;;;4988695;28;20132;-73
2023/09/03 04:12:25;;;;;;;0.30;0.30;;;10.60;99.90;;;;;;4999571;28;20069;-73
2023/09/03 04:14:51;;;;;;;0.30;0.30;;;10.60;99.90;;;;;;4986448;28;20681;-73
2023/09/03 04:17:16;;;;;;;0.30;0.30;;;10.60;99.90;;;;;;4986282;28;20072;-73
2023/09/03 04:19:47;;;;;;;0.40;0.40;;;10.60;99.90;;;;;;4987518;28;20050;-73
2023/09/03 04:22:12;;;;;;;0.32;0.32;;;10.60;99.90;;;;;;4973846;28;20045;-73
2023/09/03 04:24:38;;;;;;;0.55;0.52;;;10.60;99.90;;;;;;4982346;28;20061;-73
2023/09/03 04:27:04;;;;;;;0.38;0.38;;;10.60;99.90;;;;;;4988009;28;20041;-73
2023/09/03 04:29:30;;;;;;;0.32;0.32;;;10.60;99.90;;;;;;4988033;28;20056;-73
2023/09/03 04:31:56;;;;;;;0.30;0.30;;;10.50;99.90;;;;;;4988217;28;20418;-73
2023/09/03 04:34:21;;;;;;;0.40;0.40;;;10.60;99.90;;;;;;4986023;28;20046;-73
2023/09/03 04:36:47;;;;;;;0.20;0.20;;;10.50;99.90;;;;;;4990582;28;20074;-73
2023/09/03 04:39:12;;;;;;;0.32;0.32;;;10.50;99.90;;;;;;4986907;28;20049;-73
2023/09/03 04:41:38;;;;;;;0.30;0.30;;;10.50;99.90;;;;;;4969456;28;20129;-73
2023/09/03 04:44:09;;;;;;;0.22;0.22;;;10.50;99.90;;;;;;4987730;28;20056;-73
2023/09/03 04:46:34;;;;;;;0.40;0.40;;;10.50;99.90;;;;;;4989764;28;20074;-73
2023/09/03 04:49:00;;;;;;;0.40;0.40;;;10.50;99.90;;;;;;4988862;28;20077;-73
2023/09/03 04:51:26;;;;;;;0.20;0.20;;;10.40;99.90;;;;;;4977390;28;20515;-74
2023/09/03 04:53:52;;;;;;;0.20;0.20;;;10.50;99.90;;;;;;5001432;28;20057;-73
2023/09/03 04:56:17;;;;;;;0.57;0.57;;;10.40;99.90;;;;;;4980654;28;20038;-74
2023/09/03 04:58:43;;;;;;;0.82;0.45;;;10.40;99.90;;;;;;4985351;28;20054;-74
2023/09/03 05:01:16;;;;;;;0.30;0.30;;;10.40;99.90;;;;;;4977890;28;20423;-73
2023/09/03 05:03:42;;;;;;;0.32;0.32;;;10.40;99.90;;;;;;4966313;28;20053;-73
2023/09/03 05:06:15;;;;;;;0.50;0.50;;;10.40;99.90;;;;;;4962131;28;20046;-73
2023/09/03 05:08:42;;;;;;;0.32;0.32;;;10.40;99.90;;;;;;4965719;28;20061;-74
2023/09/03 05:11:12;;;;;;;0.40;0.40;;;10.40;99.90;;;;;;4981122;28;20133;-73
2023/09/03 05:13:38;;;;;;;0.65;0.65;;;10.40;99.90;;;;;;4966794;28;20103;-73
2023/09/03 05:16:04;;;;;;;0.30;0.30;;;10.40;99.90;;;;;;4968528;28;20057;-74
2023/09/03 05:18:32;;;;;;;0.30;0.30;;;10.40;99.90;;;;;;4964729;28;20050;-73
2023/09/03 05:20:58;;;;;;;0.30;0.30;;;10.40;99.90;;;;;;4964334;28;20548;-73
2023/09/03 05:23:24;;;;;;;0.70;0.70;;;10.40;99.90;;;;;;4973401;28;20589;-74
2023/09/03 05:25:49;;;;;;;0.70;0.70;;;10.40;99.90;;;;;;4982208;28;20129;-74
2023/09/03 05:28:15;;;;;;;0.40;0.40;;;10.40;99.90;;;;;;4961835;28;20367;-74
2023/09/03 05:30:41;;;;;;;0.40;0.40;;;10.50;99.90;;;;;;4962266;28;20133;-74
2023/09/03 05:33:06;;;;;;;0.30;0.30;;;10.50;99.90;;;;;;4975255;28;20050;-74
2023/09/03 05:35:32;;;;;;;0.68;0.68;;;10.60;99.90;;;;;;4962810;28;20121;-74
2023/09/03 05:37:58;;;;;;;0.40;0.40;;;10.60;99.90;;;;;;4978296;28;20133;-75
2023/09/03 05:40:23;;;;;;;0.63;0.63;;;10.60;99.90;;;;;;4971758;28;20070;-75
2023/09/03 05:42:49;;;;;;;0.55;0.55;;;10.60;99.90;;;;;;4974678;28;20050;-74
2023/09/03 05:45:14;;;;;;;0.45;0.45;;;10.70;99.90;;;;;;4966985;28;20081;-74
2023/09/03 05:47:40;;;;;;;0.40;0.40;;;10.80;99.90;;;;;;4961651;28;20047;-74
2023/09/03 05:50:06;;;;;;;0.40;0.40;;;10.80;99.90;;;;;;4963698;28;20050;-75
2023/09/03 05:52:32;;;;;;;0.38;0.38;;;10.90;99.90;;;;;;4973765;28;20112;-74
2023/09/03 05:54:57;;;;;;;0.40;0.40;;;11.00;99.90;;;;;;4969202;28;20491;-75
2023/09/03 05:57:23;;;;;;;0.40;0.40;;;11.10;99.90;;;;;;4972791;28;20059;-74
2023/09/03 05:59:50;;;;;;;0.28;0.28;;;11.20;99.90;;;;;;4984895;28;20106;-75
2023/09/03 06:02:16;;;;;;;0.60;0.60;;;11.30;99.90;;;;;;4967658;28;20054;-74
2023/09/03 06:04:42;;;;;;;0.30;0.30;;;11.40;99.90;;;;;;4962555;28;20062;-74
2023/09/03 06:07:09;;;;;;;0.30;0.30;;;11.50;99.90;;;;;;4966734;28;20050;-74
2023/09/03 06:09:38;;;;;;;0.40;0.40;;;11.60;99.90;;;;;;4969337;28;20042;-74
2023/09/03 06:12:08;;;;;;;0.30;0.30;;;11.70;99.90;;;;;;4971316;28;20559;-74
2023/09/03 06:14:33;;;;;;;0.68;0.68;;;11.80;99.90;;;;;;4968722;28;20049;-74
2023/09/03 06:16:59;;;;;;;0.40;0.40;;;11.90;99.90;;;;;;4983394;28;20042;-74
2023/09/03 06:19:25;;;;;;;0.40;0.40;;;12.00;99.90;;;;;;4969338;28;20046;-74
2023/09/03 06:21:51;;;;;;;0.30;0.30;;;12.10;99.90;;;;;;4990811;28;20099;-75
2023/09/03 06:24:16;;;;;;;0.30;0.30;;;12.20;99.90;;;;;;4976134;28;20166;-74
2023/09/03 06:26:42;;;;;;;0.30;0.30;;;12.30;99.90;;;;;;4971266;28;20086;-74
2023/09/03 06:29:08;;;;;;;0.30;0.30;;;12.40;99.90;;;;;;4970709;28;20129;-74
2023/09/03 06:31:33;;;;;;;0.40;0.40;;;12.50;99.90;;;;;;4985544;28;20052;-74
2023/09/03 06:33:59;;;;;;;0.40;0.40;;;12.60;99.90;;;;;;4982855;28;20680;-74
2023/09/03 06:36:25;;;;;;;0.40;0.40;;;12.70;99.90;;;;;;4968836;28;20612;-74
2023/09/03 06:38:51;;;;;;;0.30;0.30;;;12.80;99.90;;;;;;4967513;28;20049;-74
2023/09/03 06:41:17;;;;;;;0.43;0.43;;;12.90;99.90;;;;;;4972012;28;20050;-74
2023/09/03 06:43:42;;;;;;;0.40;0.40;;;13.00;99.90;;;;;;4969291;28;20058;-74
2023/09/03 06:46:08;;;;;;;0.40;0.40;;;13.10;99.90;;;;;;4968107;28;20058;-74
2023/09/03 06:48:34;;;;;;;0.32;0.30;;;13.20;99.90;;;;;;4968941;28;20046;-74
2023/09/03 06:51:00;;;;;;;0.30;0.30;;;13.30;99.90;;;;;;4965641;28;20042;-74
2023/09/03 06:53:26;;;;;;;0.30;0.30;;;13.50;99.90;;;;;;4968655;28;20038;-74
2023/09/03 06:55:52;;;;;;;0.40;0.40;;;13.60;99.90;;;;;;4967957;28;20141;-74
2023/09/03 06:58:18;;;;;;;0.30;0.30;;;13.70;99.90;;;;;;4979683;28;20054;-74
2023/09/03 07:00:44;;;;;;;0.40;0.40;;;13.90;99.90;;;;;;4974510;28;20065;-74
2023/09/03 07:03:10;;;;;;;0.40;0.40;;;14.10;99.90;;;;;;4983583;28;20061;-74
2023/09/03 07:05:35;;;;;;;0.30;0.30;;;14.30;99.90;;;;;;4988162;28;20069;-75
2023/09/03 07:08:01;;;;;;;0.40;0.40;;;14.50;99.90;;;;;;4989524;28;20510;-75
2023/09/03 07:10:27;;;;;;;0.65;0.65;;;14.70;99.90;;;;;;4991234;28;20092;-74
2023/09/03 07:12:53;;;;;;;0.50;0.50;;;15.00;99.90;;;;;;4982600;28;20876;-74
2023/09/03 07:15:18;;;;;;;0.30;0.30;;;15.30;99.90;;;;;;4992308;28;20042;-74
2023/09/03 07:17:44;;;;;;;0.30;0.30;;;15.60;99.90;;;;;;4985009;28;20104;-74
2023/09/03 07:20:10;;;;;;;0.30;0.30;;;15.90;99.90;;;;;;4983967;28;20057;-75
2023/09/03 07:22:36;;;;;;;0.30;0.30;;;16.20;99.90;;;;;;4981941;28;20159;-75
2023/09/03 07:25:02;;;;;;;0.38;0.38;;;16.50;99.90;;;;;;4987985;28;20045;-74
2023/09/03 07:27:28;;;;;;;0.30;0.30;;;16.80;99.90;;;;;;4987754;28;20081;-75
2023/09/03 07:29:54;;;;;;;0.73;0.73;;;17.10;99.90;;;;;;4985744;28;20081;-75
2023/09/03 07:32:23;;;;;;;0.43;0.43;;;17.30;99.90;;;;;;4987373;28;20570;-75
2023/09/03 07:34:50;;;;;;;0.28;0.28;;;17.60;99.90;;;;;;4988574;28;20143;-75
2023/09/03 07:37:17;;;;;;;0.35;0.35;;;17.80;99.90;;;;;;4988228;28;20137;-75
2023/09/03 07:39:43;;;;;;;0.30;0.30;;;18.10;99.90;;;;;;4990484;28;20487;-76
2023/09/03 07:42:09;;;;;;;0.50;0.50;;;18.40;99.90;;;;;;4989496;28;20046;-75
2023/09/03 07:44:35;;;;;;;0.30;0.30;;;18.60;99.90;;;;;;4989060;28;20046;-75
2023/09/03 07:47:01;;;;;;;0.30;0.30;;;18.80;99.90;;;;;;4986583;28;20037;-75
2023/09/03 07:49:28;;;;;;;0.25;0.25;;;19.00;99.90;;;;;;4986936;28;20053;-75
2023/09/03 07:51:54;;;;;;;0.40;0.40;;;19.20;99.90;;;;;;4990555;28;20916;-75
2023/09/03 07:54:21;;;;;;;0.65;0.65;;;19.40;99.90;;;;;;4986985;28;20084;-76
2023/09/03 07:56:46;;;;;;;0.20;0.20;;;19.50;99.90;;;;;;4989868;28;20458;-75
2023/09/03 07:59:12;;;;;;;0.30;0.30;;;19.60;99.90;;;;;;4992223;28;20061;-75
2023/09/03 08:01:37;;;;;;;0.28;0.28;;;19.70;99.90;;;;;;4988443;28;20046;-75
2023/09/03 08:04:04;;;;;;;0.40;0.40;;;19.80;99.90;;;;;;4967521;28;20408;-75
2023/09/03 08:06:29;;;;;;;0.20;0.20;;;19.90;99.90;;;;;;4970362;28;20046;-76
2023/09/03 08:08:55;;;;;;;0.30;0.30;;;20.00;99.90;;;;;;4967074;28;20451;-75
2023/09/03 08:11:21;;;;;;;0.40;0.40;;;20.10;99.90;;;;;;4964596;28;20046;-76
2023/09/03 08:13:50;;;;;;;0.40;0.40;;;20.20;99.90;;;;;;4987239;28;20050;-76
2023/09/03 08:16:16;;;;;;;0.30;0.30;;;20.20;99.90;;;;;;4968535;28;20777;-76
2023/09/03 08:18:41;;;;;;;0.43;0.43;;;20.20;99.90;;;;;;4982399;28;20046;-76
2023/09/03 08:21:07;;;;;;;0.22;0.22;;;20.30;99.90;;;;;;4984578;28;20047;-76
2023/09/03 08:23:33;;;;;;;0.30;0.30;;;20.40;99.90;;;;;;4970904;28;20133;-76
2023/09/03 08:25:58;;;;;;;0.20;0.20;;;20.50;99.90;;;;;;4975106;28;20069;-76
2023/09/03 08:28:25;;;;;;;0.30;0.30;;;20.60;99.90;;;;;;4975441;28;20080;-76
2023/09/03 08:30:51;;;;;;;0.30;0.30;;;20.70;99.90;;;;;;4970501;28;20743;-76
2023/09/03 08:33:16;;;;;;;0.28;0.28;;;20.80;99.90;;;;;;4970562;28;20055;-76
2023/09/03 08:35:44;;;;;;;0.40;0.40;;;20.90;99.90;;;;;;4975748;28;20560;-76
2023/09/03 08:38:09;;;;;;;0.30;0.30;;;21.00;99.90;;;;;;4974066;28;20141;-75
2023/09/03 08:40:36;;;;;;;0.30;0.30;;;21.10;99.90;;;;;;4973077;28;20145;-75
2023/09/03 08:43:08;;;;;;;0.52;0.52;;;21.30;99.90;;;;;;4980701;28;20042;-75
2023/09/03 08:45:40;;;;;;;0.38;0.38;;;21.50;99.90;;;;;;4973535;28;20074;-75
2023/09/03 08:48:06;;;;;;;0.30;0.30;;;21.70;99.90;;;;;;4995985;28;20129;-75
2023/09/03 08:50:33;;;;;;;0.30;0.30;;;21.80;99.90;;;;;;4982843;28;20129;-75
2023/09/03 08:53:00;;;;;;;0.40;0.40;;;22.10;99.90;;;;;;4973924;28;20085;-75
2023/09/03 08:55:29;;;;;;;0.20;0.20;;;22.30;99.90;;;;;;4967634;28;20046;-75
2023/09/03 08:57:55;;;;;;;0.45;0.45;;;22.40;99.90;;;;;;4994965;28;20042;-74
2023/09/03 09:00:21;;;;;;;0.30;0.30;;;22.60;99.90;;;;;;4989535;28;20057;-75
2023/09/03 09:02:48;;;;;;;0.28;0.28;;;22.70;99.90;;;;;;4979170;28;20760;-75
2023/09/03 09:05:14;;;;;;;0.30;0.30;;;22.80;99.90;;;;;;4959940;28;20039;-74
2023/09/03 09:07:40;;;;;;;0.40;0.40;;;22.90;99.90;;;;;;4965659;28;20050;-74
2023/09/03 09:10:10;;;;;;;0.50;0.50;;;23.10;99.90;;;;;;4967081;28;20173;-75
2023/09/03 09:12:38;;;;;;;0.20;0.20;;;23.30;99.90;;;;;;4967453;28;20047;-74
2023/09/03 09:15:05;;;;;;;;;;;23.50;99.90;;;;;;4991685;28;20042;-74
2023/09/03 09:17:41;;;;;;;0.30;0.30;;;23.70;99.90;;;;;;4971184;28;19925;-74
2023/09/03 09:20:15;;;;;;;0.30;0.30;;;23.90;99.90;;;;;;4990439;28;20506;-74
2023/09/03 09:22:48;;;;;;;0.20;0.20;;;24.10;99.90;;;;;;4979990;28;20145;-73
2023/09/03 09:25:24;;;;;;;0.30;0.30;;;24.30;99.90;;;;;;4967570;28;20043;-74
2023/09/03 09:27:52;;;;;;;0.88;0.85;;;24.30;99.90;;;;;;4978619;28;20381;-74
2023/09/03 09:30:21;;;;;;;0.40;0.40;;;24.30;99.90;;;;;;4971472;28;20487;-74
2023/09/03 09:32:47;;;;;;;0.30;0.30;;;24.30;99.90;;;;;;4970330;28;20055;-74
2023/09/03 09:35:25;;;;;;;0.50;0.50;;;24.30;99.90;;;;;;4968783;28;20043;-74
2023/09/03 09:37:51;;;;;;;0.32;0.32;;;24.40;99.90;;;;;;4977847;28;20062;-74
2023/09/03 09:40:28;;;;;;;1.05;0.50;;;24.40;99.90;;;;;;4963220;28;20459;-73
2023/09/03 09:42:59;;;;;;;0.63;0.63;;;24.50;99.90;;;;;;4969976;28;20057;-74
2023/09/03 09:45:25;;;;;;;0.20;0.20;;;24.60;99.90;;;;;;4961101;28;20726;-74
2023/09/03 09:48:04;;;;;;;0.30;0.30;;;24.70;99.90;;;;;;4973477;28;20050;-74
2023/09/03 09:50:35;;;;;;;0.50;0.50;;;24.70;99.90;;;;;;4965144;28;20125;-74
2023/09/03 09:53:02;;;;;;;0.47;0.47;;;24.70;99.90;;;;;;4983283;28;20109;-74
2023/09/03 09:55:29;;;;;;;0.28;0.28;;;24.50;99.90;;;;;;4982027;28;20104;-75
2023/09/03 09:57:55;;;;;;;0.30;0.30;;;24.50;99.90;;;;;;4965979;28;20044;-74
2023/09/03 10:00:34;;;;;;;0.35;0.35;;;24.70;99.90;;;;;;4983932;28;20092;-74
2023/09/03 10:03:00;;;;;;;0.22;0.22;;;24.80;99.90;;;;;;4987541;28;20092;-75
2023/09/03 10:05:26;;;;;;;0.30;0.30;;;25.00;99.90;;;;;;4992577;28;20053;-75
2023/09/03 10:07:53;;;;;;;0.30;0.30;;;25.10;99.90;;;;;;4982302;28;20492;-75
2023/09/03 10:10:19;;;;;;;0.20;0.20;;;25.30;99.90;;;;;;4989132;28;20120;-76
2023/09/03 10:12:45;;;;;;;0.43;0.43;;;25.50;99.90;;;;;;4980313;28;20057;-76
2023/09/03 10:15:13;;;;;;;0.30;0.30;;;25.50;99.90;;;;;;4984655;28;20050;-76
2023/09/03 10:17:41;;;;;;;0.30;0.30;;;25.70;99.90;;;;;;4983719;28;20492;-75
2023/09/03 10:20:10;;;;;;;0.30;0.30;;;25.80;99.90;;;;;;4985891;28;20589;-75
2023/09/03 10:22:40;;;;;;;0.50;0.50;;;25.90;99.90;;;;;;4981580;28;20129;-76
2023/09/03 10:25:12;;;;;;;0.30;0.30;;;26.00;99.90;;;;;;4999080;28;20116;-76
2023/09/03 10:27:43;;;;;;;0.40;0.40;;;26.00;99.90;;;;;;4982990;28;20042;-76
2023/09/03 10:30:13;;;;;;;0.20;0.20;;;26.10;99.90;;;;;;4988527;28;20504;-75
2023/09/03 10:32:41;;;;;;;0.30;0.30;;;26.10;99.90;;;;;;4989636;28;20495;-76
2023/09/03 10:35:11;;;;;;;0.40;0.40;;;26.20;99.90;;;;;;4988074;28;20050;-76
2023/09/03 10:37:40;;;;;;;0.65;0.65;;;26.30;99.90;;;;;;4983724;28;20495;-75
2023/09/03 10:40:20;;;;;;;0.20;0.20;;;26.40;99.90;;;;;;4990239;28;20849;-76
2023/09/03 10:42:50;;;;;;;0.30;0.30;;;26.50;99.90;;;;;;4999177;28;20050;-75
2023/09/03 10:45:18;;;;;;;0.20;0.20;;;26.60;99.90;;;;;;5008909;28;20796;-75
2023/09/03 10:48:03;;;;;;;0.38;0.38;;;26.60;99.90;;;;;;4993280;28;20392;-75
2023/09/03 10:50:50;;;;;;;0.30;0.30;;;26.70;99.90;;;;;;5000334;28;20065;-75
2023/09/03 10:53:35;;;;;;;0.35;0.35;;;26.70;99.90;;;;;;4981726;28;20078;-75
2023/09/03 10:56:10;;;;;;;0.30;0.30;;;26.60;99.90;;;;;;4987103;28;20061;-75
2023/09/03 10:58:51;;;;;;;0.30;0.30;;;26.70;99.90;;;;;;4983262;28;20050;-75
2023/09/03 11:01:22;;;;;;;0.40;0.40;;;26.80;99.90;;;;;;4981518;28;20057;-75
2023/09/03 11:03:51;;;;;;;0.30;0.30;;;26.90;99.90;;;;;;4985877;28;20129;-75
2023/09/03 11:06:18;;;;;;;0.30;0.30;;;26.90;99.90;;;;;;4986216;28;20058;-75
2023/09/03 11:08:45;;;;;;;0.30;0.30;;;27.00;99.90;;;;;;4993274;28;20727;-76
2023/09/03 11:11:18;;;;;;;0.63;0.38;;;26.90;99.90;;;;;;5000843;28;20112;-75
2023/09/03 11:13:49;;;;;;;0.20;0.20;;;26.60;99.90;;;;;;4986948;28;20049;-75
2023/09/03 11:16:14;;;;;;;0.30;0.30;;;26.60;99.90;;;;;;4989981;28;20054;-76
2023/09/03 11:18:47;;;;;;;0.57;0.57;;;26.70;99.90;;;;;;4992873;28;20396;-75
2023/09/03 11:21:13;;;;;;;0.30;0.30;;;26.70;99.90;;;;;;4985691;28;20046;-76
2023/09/03 11:23:39;;;;;;;0.32;0.32;;;26.90;99.90;;;;;;4986364;28;20049;-75
2023/09/03 11:26:12;;;;;;;0.30;0.30;;;26.80;99.90;;;;;;5004122;28;20049;-76
2023/09/03 11:28:38;;;;;;;0.82;0.70;;;26.80;99.90;;;;;;4995059;28;20053;-75
2023/09/03 11:31:04;;;;;;;0.40;0.40;;;26.80;99.90;;;;;;4989698;28;20045;-75
2023/09/03 11:33:30;;;;;;;0.30;0.30;;;26.90;99.90;;;;;;4986332;28;20681;-75
2023/09/03 11:35:56;;;;;;;0.38;0.38;;;27.00;99.90;;;;;;4992493;28;20080;-75
2023/09/03 11:38:26;;;;;;;0.45;0.45;;;27.00;99.90;;;;;;4989892;28;20392;-75
2023/09/03 11:40:58;;;;;;;0.38;0.38;;;26.90;99.90;;;;;;4983077;28;20057;-75
2023/09/03 11:43:28;;;;;;;0.20;0.20;;;27.10;99.90;;;;;;4985054;28;20050;-75
2023/09/03 11:45:54;;;;;;;0.35;0.35;;;27.10;99.90;;;;;;4984327;28;20049;-75
2023/09/03 11:48:28;;;;;;;0.20;0.20;;;27.10;99.90;;;;;;4990670;28;20057;-75
2023/09/03 11:50:54;;;;;;;0.30;0.30;;;27.20;99.90;;;;;;4994119;28;20058;-75
2023/09/03 11:53:21;;;;;;;0.20;0.20;;;27.20;99.90;;;;;;4985442;28;20031;-76
2023/09/03 11:55:59;;;;;;;0.20;0.20;;;27.10;99.90;;;;;;4984902;28;20099;-75
2023/09/03 11:58:27;;;;;;;0.30;0.30;;;27.10;99.90;;;;;;4986322;28;20491;-75
2023/09/03 12:00:54;;;;;;;0.30;0.30;;;27.20;99.90;;;;;;4986273;28;20073;-75
2023/09/03 12:03:21;;;;;;;0.30;0.30;;;27.30;99.90;;;;;;5002960;28;20057;-76
2023/09/03 12:05:47;;;;;;;0.30;0.30;;;27.50;99.90;;;;;;4978539;28;20396;-75
2023/09/03 12:08:13;;;;;;;0.30;0.30;;;27.70;99.90;;;;;;5004250;28;20156;-75
2023/09/03 12:10:38;;;;;;;0.20;0.20;;;27.80;99.90;;;;;;4988143;28;20554;-75
2023/09/03 12:13:04;;;;;;;0.30;0.30;;;27.80;99.90;;;;;;5005198;28;20057;-75
2023/09/03 12:15:31;;;;;;;0.30;0.30;;;27.70;99.90;;;;;;4999360;28;20048;-76
2023/09/03 12:18:10;;;;;;;0.32;0.32;;;27.60;99.90;;;;;;4986201;28;20145;-76
2023/09/03 12:20:41;;;;;;;0.40;0.40;;;27.50;99.90;;;;;;5004854;28;20399;-76
2023/09/03 12:23:13;;;;;;;0.20;0.20;;;27.50;99.90;;;;;;4986601;28;20972;-76
2023/09/03 12:25:40;;;;;;;0.28;0.28;;;27.60;99.90;;;;;;4989390;28;20042;-76
2023/09/03 12:28:07;;;;;;;0.30;0.30;;;27.50;99.90;;;;;;4988160;28;20592;-75
2023/09/03 12:30:55;;;;;;;0.30;0.30;;;27.60;99.90;;;;;;4990028;28;20045;-75
2023/09/03 12:33:26;;;;;;;0.30;0.30;;;27.70;99.20;;;;;;4988890;28;20141;-76
2023/09/03 12:36:08;;;;;;;0.30;0.30;;;27.70;99.90;;;;;;4974485;28;20157;-76
2023/09/03 12:38:57;;;;;;;0.35;0.35;;;27.70;99.00;;;;;;4997849;28;20154;-75
2023/09/03 12:41:28;;;;;;;0.35;0.35;;;27.50;99.50;;;;;;4977568;28;20646;-75
2023/09/03 12:44:04;;;;;;;0.30;0.30;;;27.30;99.10;;;;;;4989778;28;20084;-76
2023/09/03 12:46:29;;;;;;;0.30;0.30;;;27.20;99.90;;;;;;4997298;28;20542;-76
2023/09/03 12:48:55;;;;;;;0.20;0.20;;;27.20;99.30;;;;;;5007427;28;20046;-76
2023/09/03 12:51:21;;;;;;;0.32;0.32;;;27.20;99.90;;;;;;4986069;28;20052;-76
2023/09/03 12:53:47;;;;;;;0.30;0.30;;;27.10;99.90;;;;;;4995354;28;20436;-76